Time;durP1;ratioP1;P1;durP2;ratioP2;P2;SDS_P1;SDS_P2;PMS_P1;PMS_P2;Temp;Humidity;BMP_temperature;BMP_pressure;BME280_temperature;BME280_humidity;BME280_pressure;Samples;Min_cycle;Max_cycle;Signal;HPM_P1;HPM_P2
2022/02/17 00:00:15;;;;;;;1999.90;999.90;;;12.40;99.90;;;;;;4995993;28;20200;-75
2022/02/17 00:02:44;;;;;;;1999.90;999.90;;;12.40;99.90;;;;;;4995943;28;20223;-75
2022/02/17 00:05:11;;;;;;;1999.90;999.90;;;12.40;99.90;;;;;;4996079;28;20424;-75
2022/02/17 00:07:37;;;;;;;1999.90;999.90;;;12.50;99.90;;;;;;4996007;28;20979;-75
2022/02/17 00:10:04;;;;;;;1999.90;999.90;;;12.50;99.90;;;;;;4996139;28;20409;-75
2022/02/17 00:12:30;;;;;;;1999.90;999.90;;;12.50;99.90;;;;;;4996467;28;20970;-75
2022/02/17 00:14:57;;;;;;;1999.90;999.90;;;12.50;99.90;;;;;;4995956;28;20418;-75
2022/02/17 00:17:23;;;;;;;1999.90;999.90;;;12.50;99.90;;;;;;4995904;28;20436;-75
2022/02/17 00:19:49;;;;;;;1999.90;999.90;;;12.60;99.90;;;;;;4995602;28;20456;-75
2022/02/17 00:22:14;;;;;;;1999.90;999.90;;;12.60;99.90;;;;;;4995736;28;20247;-75
2022/02/17 00:24:40;;;;;;;1999.90;999.90;;;12.50;99.90;;;;;;4995869;28;20770;-75
2022/02/17 00:27:06;;;;;;;1999.90;999.90;;;12.50;99.90;;;;;;4995852;28;20170;-75
2022/02/17 00:29:32;;;;;;;1999.90;999.90;;;12.40;99.90;;;;;;4995728;28;20221;-75
2022/02/17 00:31:58;;;;;;;1999.90;999.90;;;12.40;99.90;;;;;;4995693;28;20515;-75
2022/02/17 00:34:24;;;;;;;1999.90;999.90;;;12.40;99.90;;;;;;4995443;28;20224;-75
2022/02/17 00:36:50;;;;;;;1999.90;999.90;;;12.50;99.90;;;;;;4995494;28;20200;-75
2022/02/17 00:39:55;;;;;;;;;;;;;;;;;;;;;
2022/02/17 00:42:43;;;;;;;1999.90;999.90;;;12.70;99.90;;;;;;5013739;28;20205;-75
2022/02/17 00:45:25;;;;;;;1999.90;999.90;;;12.90;99.90;;;;;;5014769;28;20967;-75
2022/02/17 00:47:53;;;;;;;1999.90;999.90;;;12.90;99.90;;;;;;5014683;28;20476;-75
2022/02/17 00:50:36;;;;;;;1999.90;999.90;;;12.90;99.90;;;;;;5014763;28;20420;-75
2022/02/17 00:53:04;;;;;;;1999.90;999.90;;;13.00;99.90;;;;;;5014887;28;20909;-74
2022/02/17 00:55:36;;;;;;;1999.90;999.90;;;12.80;99.90;;;;;;5014396;28;20455;-74
2022/02/17 00:58:02;;;;;;;1999.90;999.90;;;12.70;99.90;;;;;;5014528;28;20427;-75
2022/02/17 01:00:27;;;;;;;1999.90;999.90;;;12.60;99.90;;;;;;5014754;28;20438;-75
2022/02/17 01:02:53;;;;;;;1999.90;999.90;;;12.50;99.90;;;;;;5014734;28;20259;-75
2022/02/17 01:05:20;;;;;;;1999.90;999.90;;;12.40;99.90;;;;;;5014514;28;20543;-75
2022/02/17 01:07:46;;;;;;;1999.90;999.90;;;12.30;99.90;;;;;;5014599;28;20256;-75
2022/02/17 01:10:11;;;;;;;1999.90;999.90;;;12.30;99.90;;;;;;5014607;28;20857;-74
2022/02/17 01:12:37;;;;;;;1999.90;999.90;;;12.20;99.90;;;;;;5014556;28;20176;-75
2022/02/17 01:15:03;;;;;;;1999.90;999.90;;;12.10;99.90;;;;;;5013947;28;20182;-74
2022/02/17 01:17:29;;;;;;;1999.90;999.90;;;12.10;99.90;;;;;;5014259;28;20260;-74
2022/02/17 01:19:54;;;;;;;1999.90;999.90;;;12.10;99.90;;;;;;5014179;28;20893;-74
2022/02/17 01:22:20;;;;;;;1999.90;999.90;;;12.20;99.90;;;;;;5014174;28;20338;-75
2022/02/17 01:24:46;;;;;;;1999.90;999.90;;;12.30;99.90;;;;;;5014146;28;20169;-75
2022/02/17 01:27:11;;;;;;;1999.90;999.90;;;12.50;99.90;;;;;;5014200;28;20169;-75
2022/02/17 01:29:37;;;;;;;1999.90;999.90;;;12.70;99.90;;;;;;5013849;28;20658;-75
2022/02/17 01:32:03;;;;;;;1999.90;999.90;;;12.80;99.90;;;;;;5014111;28;20521;-75
2022/02/17 01:34:29;;;;;;;1999.90;999.90;;;12.80;99.90;;;;;;5013990;28;20250;-75
2022/02/17 01:36:54;;;;;;;1999.90;999.90;;;12.90;99.90;;;;;;5014436;28;20412;-74
2022/02/17 01:43:35;;;;;;;1999.90;999.90;;;12.90;99.90;;;;;;5014030;28;20208;-74
2022/02/17 01:46:41;;;;;;;1999.90;999.90;;;12.70;99.90;;;;;;5013981;28;20447;-74
2022/02/17 01:50:10;;;;;;;1999.90;999.90;;;12.70;99.90;;;;;;5029088;23;21005;-74
2022/02/17 01:52:45;;;;;;;1999.90;999.90;;;12.80;99.90;;;;;;5013911;28;20742;-74
2022/02/17 01:55:12;;;;;;;1999.90;999.90;;;12.70;99.90;;;;;;5010926;28;20843;-74
2022/02/17 01:57:46;;;;;;;1999.90;999.90;;;12.70;99.90;;;;;;5013652;28;20440;-74
2022/02/17 02:00:38;;;;;;;1999.90;999.90;;;12.60;99.90;;;;;;5013773;28;20426;-74
2022/02/17 02:03:04;;;;;;;1999.90;999.90;;;12.60;99.90;;;;;;5012147;28;20460;-74
2022/02/17 02:05:29;;;;;;;1999.90;999.90;;;12.60;99.90;;;;;;5013693;28;20410;-74
2022/02/17 02:07:55;;;;;;;1999.90;999.90;;;12.60;99.90;;;;;;5029255;28;20197;-74
2022/02/17 02:10:21;;;;;;;1999.90;999.90;;;12.60;99.90;;;;;;5013831;28;20183;-74
2022/02/17 02:12:47;;;;;;;1999.90;999.90;;;12.50;99.90;;;;;;5013916;28;20172;-74
2022/02/17 02:15:14;;;;;;;1999.90;999.90;;;12.50;99.90;;;;;;5013593;28;20407;-74
2022/02/17 02:17:40;;;;;;;1999.90;999.90;;;12.50;99.90;;;;;;5014338;28;20634;-74
2022/02/17 02:20:07;;;;;;;1999.90;999.90;;;12.50;99.90;;;;;;5014373;28;20431;-74
2022/02/17 02:22:33;;;;;;;1999.90;999.90;;;12.40;99.90;;;;;;5014048;28;20446;-74
2022/02/17 02:25:00;;;;;;;1999.90;999.90;;;12.40;99.90;;;;;;5013651;28;20438;-74
2022/02/17 02:27:28;;;;;;;1999.90;999.90;;;12.40;99.90;;;;;;5014155;28;20400;-74
2022/02/17 02:29:54;;;;;;;1999.90;999.90;;;12.40;99.90;;;;;;5014024;28;20431;-74
2022/02/17 02:32:20;;;;;;;1999.90;999.90;;;12.30;99.90;;;;;;5012962;28;20412;-74
2022/02/17 02:34:45;;;;;;;1999.90;999.90;;;12.30;99.90;;;;;;5012612;28;20404;-74
2022/02/17 02:37:11;;;;;;;1999.90;999.90;;;12.30;99.90;;;;;;5012735;28;20172;-74
2022/02/17 02:39:37;;;;;;;1999.90;999.90;;;12.20;99.90;;;;;;5012624;28;20204;-73
2022/02/17 02:42:04;;;;;;;1999.90;999.90;;;12.20;99.90;;;;;;5012689;28;20186;-73
2022/02/17 02:44:30;;;;;;;1999.90;999.90;;;12.20;99.90;;;;;;5012436;28;20497;-75
2022/02/17 02:46:56;;;;;;;1999.90;999.90;;;12.20;99.90;;;;;;5012712;28;20496;-74
2022/02/17 02:49:22;;;;;;;1999.90;999.90;;;12.20;99.90;;;;;;5012503;28;20443;-74
2022/02/17 02:51:48;;;;;;;1999.90;999.90;;;12.10;99.90;;;;;;5012567;28;20281;-74
2022/02/17 02:54:13;;;;;;;1999.90;999.90;;;12.10;99.90;;;;;;5012251;28;20443;-74
2022/02/17 02:56:39;;;;;;;1999.90;999.90;;;12.10;99.90;;;;;;5012545;28;20243;-74
2022/02/17 02:59:05;;;;;;;1999.90;999.90;;;12.10;99.90;;;;;;5012397;28;20195;-73
2022/02/17 03:01:31;;;;;;;1999.90;999.90;;;12.00;99.90;;;;;;5012347;28;20463;-74
2022/02/17 03:03:56;;;;;;;1999.90;999.90;;;12.00;99.90;;;;;;5012488;28;20175;-74
2022/02/17 03:06:22;;;;;;;1999.90;999.90;;;12.00;99.90;;;;;;5011958;28;20199;-74
2022/02/17 03:08:48;;;;;;;1999.90;999.90;;;12.00;99.90;;;;;;5012222;28;20234;-73
2022/02/17 03:11:13;;;;;;;1999.90;999.90;;;11.90;99.90;;;;;;5012332;28;20263;-72
2022/02/17 03:13:39;;;;;;;1999.90;999.90;;;11.90;99.90;;;;;;5012380;28;20562;-74
2022/02/17 03:16:05;;;;;;;1999.90;999.90;;;11.90;99.90;;;;;;5011992;28;20646;-74
2022/02/17 03:18:31;;;;;;;1999.90;999.90;;;11.90;99.90;;;;;;5012245;28;20194;-74
2022/02/17 03:20:56;;;;;;;1999.90;999.90;;;11.80;99.90;;;;;;5012269;28;20411;-74
2022/02/17 03:23:22;;;;;;;1999.90;999.90;;;11.80;99.90;;;;;;5012115;28;20199;-73
2022/02/17 03:25:48;;;;;;;1999.90;999.90;;;11.70;99.90;;;;;;5011882;28;20250;-73
2022/02/17 03:28:13;;;;;;;1999.90;999.90;;;11.70;99.90;;;;;;5012003;28;20190;-74
2022/02/17 03:30:39;;;;;;;1999.90;999.90;;;11.70;99.90;;;;;;5012125;28;20167;-73
2022/02/17 03:33:05;;;;;;;1999.90;999.90;;;11.60;99.90;;;;;;5012209;28;20173;-74
2022/02/17 03:35:31;;;;;;;1999.90;999.90;;;11.70;99.90;;;;;;5011792;28;20430;-73
2022/02/17 03:37:57;;;;;;;1999.90;999.90;;;11.60;99.90;;;;;;5011958;28;20558;-74
2022/02/17 03:40:23;;;;;;;1999.90;999.90;;;11.60;99.90;;;;;;5012016;28;20161;-74
2022/02/17 03:42:49;;;;;;;1999.90;999.90;;;11.60;99.90;;;;;;5011943;28;20920;-74
2022/02/17 03:45:14;;;;;;;1999.90;999.90;;;11.70;99.90;;;;;;5011737;28;20436;-73
2022/02/17 03:47:40;;;;;;;1999.90;999.90;;;11.60;99.90;;;;;;5011778;28;20782;-73
2022/02/17 03:50:08;;;;;;;1999.90;999.90;;;11.60;99.90;;;;;;5011935;28;20172;-74
2022/02/17 03:52:33;;;;;;;1999.90;999.90;;;11.60;99.90;;;;;;5011874;28;20203;-73
2022/02/17 03:54:59;;;;;;;1999.90;999.90;;;11.50;99.90;;;;;;5011662;28;20465;-74
2022/02/17 03:57:24;;;;;;;1999.90;999.90;;;11.40;99.90;;;;;;5011862;28;20263;-73
2022/02/17 03:59:50;;;;;;;1999.90;999.90;;;11.50;99.90;;;;;;5011803;28;20194;-74
2022/02/17 04:02:16;;;;;;;1999.90;999.90;;;11.50;99.90;;;;;;5011809;28;20261;-74
2022/02/17 04:04:42;;;;;;;1999.90;999.90;;;11.40;99.90;;;;;;5011635;28;20531;-73
2022/02/17 04:07:07;;;;;;;1999.90;999.90;;;11.40;99.90;;;;;;5011820;28;20168;-73
2022/02/17 04:09:33;;;;;;;1999.90;999.90;;;11.40;99.90;;;;;;5011675;28;20473;-74
2022/02/17 04:11:59;;;;;;;1999.90;999.90;;;11.50;99.90;;;;;;5011760;28;20168;-72
2022/02/17 04:14:25;;;;;;;1999.90;999.90;;;11.50;99.90;;;;;;5011437;28;20410;-73
2022/02/17 04:16:50;;;;;;;1999.90;999.90;;;11.40;99.90;;;;;;5012265;28;20935;-73
2022/02/17 04:19:18;;;;;;;1999.90;999.90;;;11.40;99.90;;;;;;5030524;28;20251;-74
2022/02/17 04:21:44;;;;;;;1999.90;999.90;;;11.40;99.90;;;;;;5015200;28;20693;-74
2022/02/17 04:24:10;;;;;;;1999.90;999.90;;;11.40;99.90;;;;;;5014984;28;20398;-74
2022/02/17 04:26:35;;;;;;;1999.90;999.90;;;11.40;99.90;;;;;;5015156;28;20434;-73
2022/02/17 04:29:01;;;;;;;1999.90;999.90;;;11.40;99.90;;;;;;5015161;28;20526;-74
2022/02/17 04:31:27;;;;;;;1999.90;999.90;;;11.30;99.90;;;;;;5015148;28;20254;-73
2022/02/17 04:33:53;;;;;;;1999.90;999.90;;;11.30;99.90;;;;;;5015069;28;20175;-74
2022/02/17 04:36:19;;;;;;;1999.90;999.90;;;11.30;99.90;;;;;;5014796;28;20438;-74
2022/02/17 04:38:44;;;;;;;1999.90;999.90;;;11.30;99.90;;;;;;5014895;28;20521;-74
2022/02/17 04:43:55;;;;;;;1999.90;999.90;;;11.20;99.90;;;;;;5015274;28;20182;-74
2022/02/17 04:46:20;;;;;;;1999.90;999.90;;;11.20;99.90;;;;;;5014611;28;20777;-74
2022/02/17 04:48:46;;;;;;;1999.90;999.90;;;11.20;99.90;;;;;;5015035;28;20214;-74
2022/02/17 04:51:12;;;;;;;1999.90;999.90;;;11.10;99.90;;;;;;5014780;28;20175;-74
2022/02/17 04:53:37;;;;;;;1999.90;999.90;;;11.10;99.90;;;;;;5014750;28;20657;-74
2022/02/17 04:56:03;;;;;;;1999.90;999.90;;;11.10;99.90;;;;;;5014373;28;20291;-73
2022/02/17 04:58:29;;;;;;;1999.90;999.90;;;11.10;99.90;;;;;;5014731;28;20233;-74
2022/02/17 05:00:54;;;;;;;1999.90;999.90;;;11.10;99.90;;;;;;5014644;28;20503;-74
2022/02/17 05:03:24;;;;;;;1999.90;999.90;;;11.00;99.90;;;;;;5014537;28;20203;-74
2022/02/17 05:05:53;;;;;;;1999.90;999.90;;;11.00;99.90;;;;;;5014185;28;20194;-74
2022/02/17 05:08:19;;;;;;;1999.90;999.90;;;10.90;99.90;;;;;;5014440;28;20777;-74
2022/02/17 05:10:46;;;;;;;1999.90;999.90;;;10.90;99.90;;;;;;5014391;28;20407;-74
2022/02/17 05:13:12;;;;;;;1999.90;999.90;;;10.80;99.90;;;;;;5014448;28;20494;-74
2022/02/17 05:15:38;;;;;;;1999.90;999.90;;;10.80;99.90;;;;;;5014398;28;20971;-73
2022/02/17 05:18:04;;;;;;;1999.90;999.90;;;10.60;99.90;;;;;;5014628;28;20574;-75
2022/02/17 05:20:30;;;;;;;1999.90;999.90;;;10.60;99.90;;;;;;5014411;28;20410;-73
2022/02/17 05:22:56;;;;;;;1999.90;999.90;;;10.60;99.90;;;;;;5014542;28;20531;-73
2022/02/17 05:25:21;;;;;;;1999.90;999.90;;;10.60;99.90;;;;;;5014252;28;20511;-73
2022/02/17 05:27:47;;;;;;;1999.90;999.90;;;10.50;99.90;;;;;;5013826;28;20664;-74
2022/02/17 05:30:13;;;;;;;1999.90;999.90;;;10.40;99.90;;;;;;5014190;28;20185;-73
2022/02/17 05:32:40;;;;;;;1999.90;999.90;;;10.40;99.90;;;;;;5014021;28;20497;-73
2022/02/17 05:35:07;;;;;;;1999.90;999.90;;;10.50;99.90;;;;;;5013728;28;20532;-73
2022/02/17 05:37:33;;;;;;;1999.90;999.90;;;10.50;99.90;;;;;;5014091;28;20408;-73
2022/02/17 05:39:59;;;;;;;1999.90;999.90;;;10.60;99.90;;;;;;5014357;28;20412;-73
2022/02/17 05:42:25;;;;;;;1999.90;999.90;;;10.60;99.90;;;;;;5013961;28;20464;-74
2022/02/17 05:44:50;;;;;;;1999.90;999.90;;;10.50;99.90;;;;;;5013581;28;20531;-73
2022/02/17 05:47:16;;;;;;;1999.90;999.90;;;10.20;99.90;;;;;;5014028;28;20191;-73
2022/02/17 05:49:41;;;;;;;1999.90;999.90;;;10.10;99.90;;;;;;5013628;28;20221;-73
2022/02/17 05:52:07;;;;;;;1999.90;999.90;;;10.10;99.90;;;;;;5014053;28;20176;-73
2022/02/17 05:54:33;;;;;;;1999.90;999.90;;;10.10;99.90;;;;;;5013769;28;20189;-73
2022/02/17 05:56:58;;;;;;;1999.90;999.90;;;10.20;99.90;;;;;;5013765;28;20175;-74
2022/02/17 05:59:24;;;;;;;1999.90;999.90;;;10.10;99.90;;;;;;5013531;28;20194;-73
2022/02/17 06:01:49;;;;;;;1999.90;999.90;;;10.00;99.90;;;;;;5013452;28;20203;-73
2022/02/17 06:04:15;;;;;;;1999.90;999.90;;;10.00;99.90;;;;;;5013139;28;20178;-73
2022/02/17 06:06:40;;;;;;;1999.90;999.90;;;9.90;99.90;;;;;;5013320;28;20210;-74
2022/02/17 06:09:06;;;;;;;1999.90;999.90;;;9.60;99.90;;;;;;5013461;28;20189;-75
2022/02/17 06:11:32;;;;;;;1999.90;999.90;;;9.30;99.90;;;;;;5013649;28;20176;-75
2022/02/17 06:13:58;;;;;;;1999.90;999.90;;;9.20;99.90;;;;;;5013488;28;20630;-75
2022/02/17 06:16:24;;;;;;;1999.90;999.90;;;9.30;99.90;;;;;;5013272;28;20396;-75
2022/02/17 06:18:49;;;;;;;1999.90;999.90;;;9.30;99.90;;;;;;5013353;28;20197;-75
2022/02/17 06:21:15;;;;;;;1999.90;999.90;;;9.30;99.90;;;;;;5013306;28;20183;-74
2022/02/17 06:23:41;;;;;;;1999.90;999.90;;;9.30;99.90;;;;;;5013068;28;20164;-75
2022/02/17 06:26:06;;;;;;;1999.90;999.90;;;9.10;99.90;;;;;;5012865;28;20177;-77
2022/02/17 06:28:32;;;;;;;1999.90;999.90;;;8.80;99.90;;;;;;5013296;28;20561;-75
2022/02/17 06:30:57;;;;;;;1999.90;999.90;;;8.60;99.90;;;;;;5013238;28;20193;-75
2022/02/17 06:33:23;;;;;;;1999.90;999.90;;;8.60;99.90;;;;;;5012999;28;20236;-74
2022/02/17 06:35:49;;;;;;;1999.90;999.90;;;8.60;99.90;;;;;;5012609;28;20215;-77
2022/02/17 06:38:30;;;;;;;1999.90;999.90;;;8.60;99.90;;;;;;5075322;22;20224;-74
2022/02/17 06:40:58;;;;;;;1999.90;999.90;;;8.30;99.90;;;;;;4991845;28;20177;-74
2022/02/17 06:43:25;;;;;;;1999.90;999.90;;;8.60;99.90;;;;;;4993293;28;20511;-73
2022/02/17 06:45:50;;;;;;;1999.90;999.90;;;8.50;99.90;;;;;;4993107;28;20409;-73
2022/02/17 06:48:16;;;;;;;1999.90;999.90;;;8.30;99.90;;;;;;4992964;28;20428;-73
2022/02/17 06:50:42;;;;;;;1999.90;999.90;;;8.40;99.90;;;;;;4993062;28;20170;-73
2022/02/17 06:53:08;;;;;;;1999.90;999.90;;;8.60;99.90;;;;;;4993025;28;20413;-74
2022/02/17 06:55:34;;;;;;;1999.90;999.90;;;8.70;99.90;;;;;;4992710;28;20201;-74
2022/02/17 06:58:00;;;;;;;1999.90;999.90;;;8.80;99.90;;;;;;4992901;28;20528;-74
2022/02/17 07:00:25;;;;;;;1999.90;999.90;;;8.90;99.90;;;;;;4993046;28;20496;-74
2022/02/17 07:02:56;;;;;;;1999.90;999.90;;;8.80;99.90;;;;;;4992947;28;20570;-74
2022/02/17 07:05:24;;;;;;;1999.90;999.90;;;8.60;99.90;;;;;;4992761;28;20170;-73
2022/02/17 07:07:50;;;;;;;1999.90;999.90;;;8.50;99.90;;;;;;4992920;28;20401;-73
2022/02/17 07:10:54;;;;;;;1999.90;999.90;;;8.30;99.90;;;;;;4993005;28;20401;-73
2022/02/17 07:13:05;;;;;;;1999.90;999.90;;;8.20;99.90;;;;;;4993593;28;20898;-73
2022/02/17 07:15:34;;;;;;;1999.90;999.90;;;8.00;99.90;;;;;;4993481;28;20405;-73
2022/02/17 07:18:01;;;;;;;1999.90;999.90;;;8.00;99.90;;;;;;4992350;28;20471;-73
2022/02/17 07:20:27;;;;;;;1999.90;999.90;;;8.20;99.90;;;;;;4993568;28;20414;-73
2022/02/17 07:22:52;;;;;;;1999.90;999.90;;;8.20;99.90;;;;;;4993012;28;20452;-73
2022/02/17 07:25:18;;;;;;;1999.90;999.90;;;8.20;99.90;;;;;;4993004;28;20319;-73
2022/02/17 07:27:44;;;;;;;1999.90;999.90;;;8.40;99.90;;;;;;4993039;28;20189;-73
2022/02/17 07:30:10;;;;;;;1999.90;999.90;;;8.50;99.90;;;;;;4993118;28;20173;-73
2022/02/17 07:32:40;;;;;;;1999.90;999.90;;;8.70;99.90;;;;;;4992976;28;20240;-73
2022/02/17 07:35:06;;;;;;;1999.90;999.90;;;9.00;99.90;;;;;;4993205;28;20393;-73
2022/02/17 07:37:31;;;;;;;1999.90;999.90;;;9.00;99.90;;;;;;4992053;28;20992;-73
2022/02/17 07:39:57;;;;;;;1999.90;999.90;;;9.00;99.90;;;;;;4993179;28;20436;-73
2022/02/17 07:42:22;;;;;;;1999.90;999.90;;;9.00;99.90;;;;;;4993013;28;20642;-73
2022/02/17 07:44:48;;;;;;;1999.90;999.90;;;8.90;99.90;;;;;;4992585;28;20186;-73
2022/02/17 07:47:13;;;;;;;1999.90;999.90;;;8.80;99.90;;;;;;4992785;28;20651;-73
2022/02/17 07:49:39;;;;;;;1999.90;999.90;;;8.80;99.90;;;;;;4992856;28;20282;-73
2022/02/17 07:52:05;;;;;;;1999.90;999.90;;;8.80;99.90;;;;;;4995509;28;20173;-73
2022/02/17 07:54:30;;;;;;;1999.90;999.90;;;8.90;99.90;;;;;;4996463;28;20178;-73
2022/02/17 07:56:56;;;;;;;1999.90;999.90;;;9.00;99.90;;;;;;4996663;28;20417;-74
2022/02/17 07:59:22;;;;;;;1999.90;999.90;;;9.10;99.90;;;;;;4996701;28;20205;-73
2022/02/17 08:01:47;;;;;;;1999.90;999.90;;;8.90;99.90;;;;;;4996806;28;20460;-73
2022/02/17 08:04:13;;;;;;;1999.90;999.90;;;8.50;99.90;;;;;;4996809;28;20174;-73
2022/02/17 08:06:43;;;;;;;1999.90;999.90;;;8.30;99.90;;;;;;4996944;28;20216;-72
2022/02/17 08:09:09;;;;;;;1999.90;999.90;;;8.20;99.90;;;;;;4995549;28;20186;-72
2022/02/17 08:11:34;;;;;;;1999.90;999.90;;;8.20;99.90;;;;;;4996734;28;20898;-73
2022/02/17 08:14:00;;;;;;;1999.90;999.90;;;8.30;99.90;;;;;;4996178;28;20413;-73
2022/02/17 08:16:26;;;;;;;1999.90;999.90;;;8.50;99.90;;;;;;4996679;28;20248;-73
2022/02/17 08:18:52;;;;;;;1999.90;999.90;;;8.70;99.90;;;;;;4996457;28;20284;-73
2022/02/17 08:21:18;;;;;;;1999.90;999.90;;;8.80;99.90;;;;;;4996633;28;20497;-73
2022/02/17 08:23:43;;;;;;;1999.90;999.90;;;8.90;99.90;;;;;;4995993;28;20254;-73
2022/02/17 08:26:09;;;;;;;1999.90;999.90;;;9.00;99.90;;;;;;4995861;28;20169;-73
2022/02/17 08:28:34;;;;;;;1999.90;999.90;;;9.20;99.90;;;;;;4996134;28;20187;-74
2022/02/17 08:31:00;;;;;;;1999.90;999.90;;;9.50;99.90;;;;;;4995899;28;20166;-74
2022/02/17 08:33:26;;;;;;;1999.90;999.90;;;9.60;99.90;;;;;;4995875;28;20180;-73
2022/02/17 08:35:51;;;;;;;1999.90;999.90;;;9.60;99.90;;;;;;4995857;28;20169;-74
2022/02/17 08:38:18;;;;;;;1999.90;999.90;;;9.70;99.90;;;;;;4995819;28;20238;-73
2022/02/17 08:40:44;;;;;;;1999.90;999.90;;;9.70;99.90;;;;;;4995903;28;20705;-73
2022/02/17 08:43:10;;;;;;;1999.90;999.90;;;9.80;99.90;;;;;;4995903;28;20546;-73
2022/02/17 08:45:40;;;;;;;1999.90;999.90;;;9.90;99.90;;;;;;4995487;28;20413;-73
2022/02/17 08:48:07;;;;;;;1999.90;999.90;;;10.00;99.90;;;;;;4995715;28;20432;-73
2022/02/17 08:50:34;;;;;;;1999.90;999.90;;;10.10;99.90;;;;;;4995960;28;20772;-73
2022/02/17 08:53:00;;;;;;;1999.90;999.90;;;10.10;99.90;;;;;;4995787;28;20411;-73
2022/02/17 08:55:26;;;;;;;1999.90;999.90;;;10.20;99.90;;;;;;4995181;28;20490;-73
2022/02/17 08:57:53;;;;;;;1999.90;999.90;;;10.30;99.90;;;;;;4995735;28;20207;-73
2022/02/17 09:00:19;;;;;;;1999.90;999.90;;;10.30;99.90;;;;;;4994204;28;20507;-73
2022/02/17 09:02:45;;;;;;;1999.90;999.90;;;10.40;99.90;;;;;;4994845;28;20460;-73
2022/02/17 09:05:11;;;;;;;1999.90;999.90;;;10.40;99.90;;;;;;4995525;28;20411;-73
2022/02/17 09:07:37;;;;;;;1999.90;999.90;;;10.50;99.90;;;;;;4995479;28;20574;-73
2022/02/17 09:10:04;;;;;;;1999.90;999.90;;;10.50;99.90;;;;;;4995346;28;20406;-74
2022/02/17 09:12:37;;;;;;;1999.90;999.90;;;10.50;99.90;;;;;;4995450;28;20263;-74
2022/02/17 09:15:04;;;;;;;1999.90;999.90;;;10.50;99.90;;;;;;4995092;28;20414;-74
2022/02/17 09:17:30;;;;;;;1999.90;999.90;;;10.50;99.90;;;;;;4995312;28;20406;-74
2022/02/17 09:19:56;;;;;;;1999.90;999.90;;;10.50;99.90;;;;;;4995137;28;20481;-74
2022/02/17 09:22:22;;;;;;;1999.90;999.90;;;10.60;99.90;;;;;;4995155;28;20596;-74
2022/02/17 09:24:48;;;;;;;1999.90;999.90;;;10.60;99.90;;;;;;4994915;28;20529;-73
2022/02/17 09:27:14;;;;;;;1999.90;999.90;;;10.60;99.90;;;;;;4995008;28;20172;-73
2022/02/17 09:29:41;;;;;;;1999.90;999.90;;;10.60;99.90;;;;;;4994898;28;20528;-73
2022/02/17 09:32:07;;;;;;;1999.90;999.90;;;10.70;99.90;;;;;;4995089;28;20440;-73
2022/02/17 09:34:34;;;;;;;1999.90;999.90;;;10.70;99.90;;;;;;4994835;28;20482;-73
2022/02/17 09:37:00;;;;;;;1999.90;999.90;;;10.70;99.90;;;;;;4995045;28;20862;-74
2022/02/17 09:39:28;;;;;;;1999.90;999.90;;;10.80;99.90;;;;;;4994562;28;20585;-73
2022/02/17 09:41:57;;;;;;;1999.90;999.90;;;10.70;99.90;;;;;;4994682;28;20540;-74
2022/02/17 09:44:26;;;;;;;1999.90;999.90;;;10.60;99.90;;;;;;4994261;28;20543;-73
2022/02/17 09:46:52;;;;;;;1999.90;999.90;;;10.70;99.90;;;;;;4994402;28;20405;-73
2022/02/17 09:49:19;;;;;;;1999.90;999.90;;;10.70;99.90;;;;;;4994567;28;20473;-73
2022/02/17 09:51:46;;;;;;;1999.90;999.90;;;10.70;99.90;;;;;;4994326;28;20910;-73
2022/02/17 09:54:12;;;;;;;1999.90;999.90;;;10.70;99.90;;;;;;4994011;28;20916;-73
2022/02/17 09:56:38;;;;;;;1999.90;999.90;;;10.80;99.90;;;;;;4994188;28;20479;-73
2022/02/17 09:59:05;;;;;;;1999.90;999.90;;;10.90;99.90;;;;;;4994064;28;20237;-74
2022/02/17 10:01:31;;;;;;;1999.90;999.90;;;10.90;99.90;;;;;;4994194;28;20823;-73
2022/02/17 10:04:16;;;;;;;1999.90;999.90;;;11.00;99.90;;;;;;4994044;28;20445;-73
2022/02/17 10:06:49;;;;;;;1999.90;999.90;;;10.90;99.90;;;;;;4994262;28;20411;-73
2022/02/17 10:09:16;;;;;;;1999.90;999.90;;;11.00;99.90;;;;;;4994009;28;20502;-73
2022/02/17 10:11:44;;;;;;;1999.90;999.90;;;10.90;99.90;;;;;;4994027;28;20415;-73
2022/02/17 10:14:12;;;;;;;1999.90;999.90;;;11.00;99.90;;;;;;4993408;28;20419;-73
2022/02/17 10:17:02;;;;;;;1999.90;999.90;;;11.10;99.90;;;;;;4994025;28;20408;-73
2022/02/17 10:19:33;;;;;;;1999.90;999.90;;;11.10;99.90;;;;;;4994021;28;20443;-73
2022/02/17 10:22:10;;;;;;;1999.90;999.90;;;11.00;99.90;;;;;;4993924;28;20461;-73
2022/02/17 10:24:43;;;;;;;1999.90;999.90;;;10.90;99.90;;;;;;4993855;28;20407;-73
2022/02/17 10:27:18;;;;;;;1999.90;999.90;;;11.00;99.90;;;;;;4993887;28;20407;-73
2022/02/17 10:30:10;;;;;;;1999.90;999.90;;;11.00;99.90;;;;;;4994267;28;20509;-73
2022/02/17 10:32:50;;;;;;;1999.90;999.90;;;11.10;99.90;;;;;;4994073;28;20897;-73
2022/02/17 10:35:17;;;;;;;1999.90;999.90;;;11.10;99.90;;;;;;4993403;28;20751;-73
2022/02/17 10:37:50;;;;;;;1999.90;999.90;;;11.30;99.90;;;;;;4993722;28;20554;-73
2022/02/17 10:40:24;;;;;;;1999.90;999.90;;;11.30;99.90;;;;;;4993586;28;20906;-73
2022/02/17 10:43:02;;;;;;;1999.90;999.90;;;11.40;99.90;;;;;;4993676;28;20462;-73
2022/02/17 10:45:28;;;;;;;1999.90;999.90;;;11.50;99.90;;;;;;4993602;28;20412;-73
2022/02/17 11:07:37;;;;;;;1999.90;999.90;;;11.10;99.90;;;;;;5012926;28;20870;-74
2022/02/17 11:17:28;;;;;;;1999.90;999.90;;;11.20;99.90;;;;;;4989471;28;20414;-74
2022/02/17 11:23:20;;;;;;;1999.90;999.90;;;11.70;99.90;;;;;;5011818;28;20473;-74
2022/02/17 11:25:48;;;;;;;1999.90;999.90;;;11.80;99.90;;;;;;5013529;28;20410;-74
2022/02/17 11:38:31;;;;;;;1999.90;999.90;;;11.80;99.90;;;;;;4995506;28;20472;-74
2022/02/17 11:41:09;;;;;;;1999.90;999.90;;;11.90;99.90;;;;;;4998365;28;20461;-73
2022/02/17 11:43:37;;;;;;;1999.90;999.90;;;11.80;99.90;;;;;;4997881;28;20989;-74
2022/02/17 11:46:02;;;;;;;1999.90;999.90;;;12.10;99.90;;;;;;4997997;28;20984;-73
2022/02/17 11:51:30;;;;;;;1999.90;999.90;;;12.80;99.90;;;;;;4447448;26;20250;-75
2022/02/17 11:54:17;;;;;;;1999.90;999.90;;;12.90;99.90;;;;;;4997558;28;20794;-75
2022/02/17 11:56:50;;;;;;;1999.90;999.90;;;13.10;99.90;;;;;;4998579;28;20503;-75
2022/02/17 12:11:41;;;;;;;1999.90;999.90;;;12.90;99.90;;;;;;5303775;23;20641;-75
2022/02/17 12:14:08;;;;;;;1999.90;999.90;;;12.80;99.90;;;;;;5005757;28;20854;-74
2022/02/17 12:16:37;;;;;;;1999.90;999.90;;;12.50;99.90;;;;;;5015011;28;20455;-74
2022/02/17 12:19:13;;;;;;;1999.90;999.90;;;12.20;99.90;;;;;;5016869;28;20419;-74
2022/02/17 12:21:41;;;;;;;1999.90;999.90;;;12.10;99.90;;;;;;5017275;28;20407;-75
2022/02/17 12:24:08;;;;;;;1999.90;999.90;;;12.00;99.90;;;;;;5018317;28;20407;-75
2022/02/17 12:26:41;;;;;;;1999.90;999.90;;;12.00;99.90;;;;;;5017780;28;20453;-74
2022/02/17 12:29:33;;;;;;;1999.90;999.90;;;11.80;99.90;;;;;;5017135;28;20489;-74
2022/02/17 12:32:01;;;;;;;1999.90;999.90;;;11.50;99.90;;;;;;5019955;28;20422;-74
2022/02/17 12:34:27;;;;;;;1999.90;999.90;;;11.40;99.90;;;;;;5018641;28;20774;-74
2022/02/17 12:36:54;;;;;;;1999.90;999.90;;;11.30;99.90;;;;;;5016981;28;20409;-73
2022/02/17 12:44:56;;;;;;;1999.90;999.90;;;10.60;99.90;;;;;;5032598;23;20480;-73
2022/02/17 13:03:48;;;;;;;;;;;;;;;;;;;;;
2022/02/17 13:06:25;;;;;;;1999.90;999.90;;;11.80;99.90;;;;;;4998286;28;20430;-75
2022/02/17 13:09:31;;;;;;;1999.90;999.90;;;12.20;99.90;;;;;;5003675;28;20854;-74
2022/02/17 13:12:28;;;;;;;;;;;;;;;;;;;;;
2022/02/17 13:15:31;;;;;;;1999.90;999.90;;;13.40;99.90;;;;;;5003960;28;20814;-74
2022/02/17 13:18:00;;;;;;;1999.90;999.90;;;13.60;99.90;;;;;;5013334;28;20415;-74
2022/02/17 13:20:49;;;;;;;1999.90;999.90;;;13.70;99.90;;;;;;5147035;23;20810;-74
2022/02/17 13:24:09;;;;;;;1999.90;999.90;;;14.00;99.90;;;;;;4998915;28;20443;-74
2022/02/17 13:27:24;;;;;;;1999.90;999.90;;;14.40;99.90;;;;;;4988808;28;20428;-75
2022/02/17 13:29:56;;;;;;;1999.90;999.90;;;14.50;99.90;;;;;;4994682;28;20427;-74
2022/02/17 13:33:04;;;;;;;1999.90;999.90;;;14.60;99.90;;;;;;4995194;28;20421;-73
2022/02/17 13:36:01;;;;;;;1999.90;999.90;;;14.50;99.90;;;;;;4993883;28;20426;-73
2022/02/17 13:39:00;;;;;;;1999.90;999.90;;;14.80;99.90;;;;;;4993772;28;20990;-73